createdAt,value
2023-03-15T00:02:03.404Z,55.29
2023-03-15T00:04:34.490Z,54.01
2023-03-15T00:07:03.625Z,54.52
2023-03-15T00:09:32.647Z,55.68
2023-03-15T00:12:01.696Z,52.61
2023-03-15T00:14:31.706Z,52.99
2023-03-15T00:17:00.743Z,51.68
2023-03-15T00:19:29.966Z,54.13
2023-03-15T00:22:00.606Z,52.49
2023-03-15T00:24:29.771Z,50.30
2023-03-15T00:26:58.810Z,51.12
2023-03-15T00:29:27.825Z,52.83
2023-03-15T00:31:56.769Z,50.92
2023-03-15T00:34:26.695Z,48.21
2023-03-15T00:36:55.754Z,50.20
2023-03-15T00:39:26.416Z,50.96
2023-03-15T00:41:57.196Z,51.58
2023-03-15T00:44:28.139Z,49.46
2023-03-15T00:46:57.155Z,49.50
2023-03-15T00:49:26.160Z,51.48
2023-03-15T00:51:56.671Z,52.17
2023-03-15T00:54:27.186Z,52.52
2023-03-15T00:56:56.207Z,52.86
2023-03-15T00:59:25.485Z,52.42
2023-03-15T01:01:54.507Z,51.54
2023-03-15T01:04:24.520Z,52.51
2023-03-15T01:06:53.679Z,53.09
2023-03-15T01:09:23.511Z,52.34
2023-03-15T01:11:53.903Z,50.88
2023-03-15T01:14:23.122Z,52.73
2023-03-15T01:16:52.598Z,52.36
2023-03-15T01:19:21.656Z,53.81
2023-03-15T01:21:50.593Z,53.06
2023-03-15T01:24:19.860Z,53.74
2023-03-15T01:26:51.054Z,54.70
2023-03-15T01:29:21.520Z,54.52
2023-03-15T01:31:50.867Z,54.67
2023-03-15T01:34:19.852Z,54.77
2023-03-15T01:36:52.666Z,54.97
2023-03-15T01:39:23.787Z,54.83
2023-03-15T01:41:52.878Z,54.27
2023-03-15T01:44:24.260Z,55.65
2023-03-15T01:46:53.809Z,55.34
2023-03-15T01:49:28.326Z,55.01
2023-03-15T01:52:02.796Z,53.16
2023-03-15T01:54:54.192Z,51.44
2023-03-15T01:57:30.838Z,51.07
2023-03-15T02:00:12.153Z,51.85
2023-03-15T02:03:08.081Z,51.88
2023-03-15T02:05:46.243Z,50.39
2023-03-15T02:08:23.427Z,50.45
2023-03-15T02:10:55.005Z,51.35
2023-03-15T02:13:28.072Z,50.48
2023-03-15T02:16:00.954Z,51.80
2023-03-15T02:18:37.489Z,52.59
2023-03-15T02:21:20.818Z,50.82
2023-03-15T02:23:59.675Z,50.53
2023-03-15T02:26:36.170Z,50.31
2023-03-15T02:29:06.729Z,52.46
2023-03-15T02:31:38.246Z,52.22
2023-03-15T02:34:08.815Z,51.70
2023-03-15T02:36:38.817Z,50.63
2023-03-15T02:39:22.472Z,50.98
2023-03-15T02:41:55.770Z,52.49
2023-03-15T02:44:32.083Z,53.04
2023-03-15T02:47:06.150Z,50.79
2023-03-15T02:49:41.959Z,52.99
2023-03-15T02:52:12.261Z,52.48
2023-03-15T02:54:43.690Z,52.76
2023-03-15T02:57:14.822Z,52.71
2023-03-15T02:59:46.039Z,52.45
2023-03-15T03:02:15.339Z,53.94
2023-03-15T03:04:45.760Z,54.15
2023-03-15T03:07:15.118Z,53.92
2023-03-15T03:09:51.101Z,53.68
2023-03-15T03:12:21.599Z,54.01
2023-03-15T03:14:52.139Z,54.02
2023-03-15T03:17:24.865Z,52.43
2023-03-15T03:19:53.891Z,53.16
2023-03-15T03:22:29.518Z,53.55
2023-03-15T03:24:58.485Z,53.10
2023-03-15T03:27:27.571Z,52.82
2023-03-15T03:29:58.269Z,53.50
2023-03-15T03:32:27.588Z,54.25
2023-03-15T03:34:56.602Z,54.22
2023-03-15T03:37:26.509Z,54.17
2023-03-15T03:40:06.914Z,54.22
2023-03-15T03:42:36.920Z,53.17
2023-03-15T03:45:10.103Z,55.10
2023-03-15T03:47:43.831Z,53.18
2023-03-15T03:50:13.131Z,54.49
2023-03-15T03:52:43.938Z,55.33
2023-03-15T03:55:18.753Z,54.65
2023-03-15T03:57:47.889Z,54.26
2023-03-15T04:00:27.443Z,54.72
2023-03-15T04:02:56.579Z,54.96
2023-03-15T04:05:25.842Z,54.99
2023-03-15T04:07:54.924Z,54.65
2023-03-15T04:10:27.079Z,54.32
2023-03-15T04:12:58.298Z,53.84
2023-03-15T04:15:29.300Z,53.77
2023-03-15T04:17:58.732Z,53.79
2023-03-15T04:20:34.650Z,54.03
2023-03-15T04:23:07.509Z,54.06
2023-03-15T04:25:36.428Z,53.59
2023-03-15T04:28:25.610Z,53.43
2023-03-15T04:31:03.384Z,53.50
2023-03-15T04:33:51.995Z,52.37
2023-03-15T04:36:37.047Z,52.72
2023-03-15T04:39:12.629Z,52.45
2023-03-15T04:41:55.325Z,52.62
2023-03-15T04:44:42.770Z,52.24
2023-03-15T04:47:36.189Z,53.07
2023-03-15T04:50:32.189Z,53.07
2023-03-15T04:53:20.532Z,53.50
2023-03-15T04:56:07.172Z,53.64
2023-03-15T04:58:57.672Z,53.50
2023-03-15T05:01:45.084Z,54.71
2023-03-15T05:04:41.747Z,53.69
2023-03-15T05:07:21.215Z,55.24
2023-03-15T05:10:12.710Z,53.56
2023-03-15T05:13:01.936Z,54.92
2023-03-15T05:15:50.609Z,54.76
2023-03-15T05:18:41.007Z,55.07
2023-03-15T05:21:32.710Z,55.26
2023-03-15T05:24:28.086Z,54.05
2023-03-15T05:27:17.273Z,55.92
2023-03-15T05:29:53.152Z,56.08
2023-03-15T05:32:44.762Z,56.39
2023-03-15T05:35:36.999Z,56.48
2023-03-15T05:38:39.994Z,56.32
2023-03-15T05:41:29.196Z,56.19
2023-03-15T05:44:16.931Z,54.44
2023-03-15T05:47:17.942Z,52.54
2023-03-15T05:50:06.587Z,52.98
2023-03-15T05:52:44.828Z,51.37
2023-03-15T05:55:24.203Z,50.71
2023-03-15T05:58:13.300Z,50.53
2023-03-15T06:01:14.558Z,50.32
2023-03-15T06:04:01.574Z,49.94
2023-03-15T06:06:33.971Z,50.57
2023-03-15T06:09:05.112Z,50.51
2023-03-15T06:11:35.519Z,49.14
2023-03-15T06:14:05.257Z,49.97
2023-03-15T06:16:40.190Z,50.60
2023-03-15T06:19:10.392Z,49.46
2023-03-15T06:21:39.431Z,49.08
2023-03-15T06:24:13.955Z,50.03
2023-03-15T06:26:45.035Z,49.09
2023-03-15T06:29:14.449Z,49.28
2023-03-15T06:31:43.705Z,49.76
2023-03-15T06:34:13.928Z,49.89
2023-03-15T06:36:43.661Z,51.14
2023-03-15T06:39:13.023Z,50.10
2023-03-15T06:41:42.679Z,50.07
2023-03-15T06:44:18.909Z,50.53
2023-03-15T06:46:49.365Z,50.49
2023-03-15T06:49:22.583Z,50.31
2023-03-15T06:51:54.387Z,50.67
2023-03-15T06:54:24.584Z,51.61
2023-03-15T06:56:54.833Z,52.21
2023-03-15T06:59:25.868Z,59.00
2023-03-15T07:01:54.964Z,64.94
2023-03-15T07:04:23.904Z,65.60
2023-03-15T07:06:53.247Z,67.27
2023-03-15T07:09:22.244Z,69.66
2023-03-15T07:11:51.210Z,69.37
2023-03-15T07:14:20.644Z,69.93
2023-03-15T07:16:51.973Z,70.58
2023-03-15T07:19:21.023Z,71.04
2023-03-15T07:21:50.060Z,71.51
2023-03-15T07:24:19.181Z,72.90
2023-03-15T07:26:48.267Z,73.13
2023-03-15T07:29:18.538Z,74.06
2023-03-15T07:31:47.526Z,74.76
2023-03-15T07:34:18.207Z,74.31
2023-03-15T07:36:47.210Z,74.87
2023-03-15T07:39:16.179Z,73.64
2023-03-15T07:41:45.167Z,73.07
2023-03-15T07:44:24.070Z,73.49
2023-03-15T07:46:55.043Z,72.81
2023-03-15T07:49:25.531Z,71.51
2023-03-15T07:51:54.520Z,71.00
2023-03-15T07:54:24.714Z,71.60
2023-03-15T07:56:54.317Z,70.72
2023-03-15T07:59:23.415Z,70.82
2023-03-15T08:01:52.650Z,69.16
2023-03-15T08:04:21.731Z,69.94
2023-03-15T08:06:52.173Z,69.69
2023-03-15T08:09:21.229Z,69.82
2023-03-15T08:11:50.651Z,69.52
2023-03-15T08:14:19.672Z,70.09
2023-03-15T08:16:48.825Z,67.89
2023-03-15T08:19:17.903Z,67.79
2023-03-15T08:21:47.049Z,68.61
2023-03-15T08:24:17.413Z,67.41
2023-03-15T08:26:46.532Z,66.27
2023-03-15T08:29:15.816Z,66.45
2023-03-15T08:31:44.932Z,65.97
2023-03-15T08:34:13.970Z,64.80
2023-03-15T08:36:44.897Z,64.94
2023-03-15T08:39:14.108Z,65.83
2023-03-15T08:41:45.617Z,65.72
2023-03-15T08:44:14.675Z,64.75
2023-03-15T08:46:44.935Z,63.92
2023-03-15T08:49:14.036Z,62.13
2023-03-15T08:51:42.984Z,62.33
2023-03-15T08:54:13.545Z,63.83
2023-03-15T08:56:44.575Z,62.50
2023-03-15T08:59:19.514Z,60.76
2023-03-15T09:01:54.600Z,60.94
2023-03-15T09:04:23.572Z,61.42
2023-03-15T09:06:52.599Z,60.04
2023-03-15T09:09:21.664Z,58.85
2023-03-15T09:11:52.014Z,59.13
2023-03-15T09:14:21.209Z,59.23
2023-03-15T09:16:50.251Z,59.29
2023-03-15T09:19:19.387Z,60.60
2023-03-15T09:21:48.551Z,57.66
2023-03-15T09:24:20.408Z,58.05
2023-03-15T09:26:49.462Z,59.27
2023-03-15T09:29:19.909Z,59.94
2023-03-15T09:31:48.950Z,59.56
2023-03-15T09:34:18.160Z,59.13
2023-03-15T09:36:52.993Z,58.08
2023-03-15T09:39:22.784Z,57.79
2023-03-15T09:41:55.647Z,57.94
2023-03-15T09:44:41.762Z,58.39
2023-03-15T09:47:27.803Z,62.20
2023-03-15T09:50:04.192Z,59.23
2023-03-15T09:52:40.940Z,59.26
2023-03-15T09:55:17.038Z,59.41
2023-03-15T09:57:52.141Z,57.91
2023-03-15T10:00:28.145Z,57.24
2023-03-15T10:03:01.704Z,54.69
2023-03-15T10:05:40.164Z,55.46
2023-03-15T10:08:14.213Z,53.35
2023-03-15T10:10:53.898Z,53.48
2023-03-15T10:13:49.464Z,52.09
2023-03-15T10:16:39.811Z,51.17
2023-03-15T10:19:20.047Z,49.80
2023-03-15T10:21:57.984Z,47.30
2023-03-15T10:24:37.442Z,49.72
2023-03-15T10:27:20.765Z,48.71
2023-03-15T10:29:53.002Z,45.65
2023-03-15T10:32:28.246Z,45.94
2023-03-15T10:34:59.544Z,43.79
2023-03-15T10:37:28.840Z,43.02
2023-03-15T10:40:01.092Z,42.28
2023-03-15T10:42:33.127Z,43.10
2023-03-15T10:45:22.555Z,41.52
2023-03-15T10:48:00.399Z,43.45
2023-03-15T10:50:32.951Z,43.50
2023-03-15T10:53:10.474Z,42.33
2023-03-15T10:55:45.457Z,41.72
2023-03-15T10:58:25.744Z,41.41
2023-03-15T11:01:01.869Z,41.92
2023-03-15T11:03:32.299Z,41.90
2023-03-15T11:06:01.963Z,42.93
2023-03-15T11:08:40.940Z,42.75
2023-03-15T11:11:11.123Z,43.47
2023-03-15T11:13:56.241Z,42.51
2023-03-15T11:16:25.415Z,42.90
2023-03-15T11:19:01.605Z,42.87
2023-03-15T11:21:33.878Z,42.61
2023-03-15T11:24:06.155Z,42.76
2023-03-15T11:26:39.928Z,43.32
2023-03-15T11:29:17.380Z,43.16
2023-03-15T11:31:46.319Z,43.11
2023-03-15T11:34:26.602Z,42.84
2023-03-15T11:37:08.687Z,42.71
2023-03-15T11:39:46.519Z,42.96
2023-03-15T11:42:25.050Z,41.62
2023-03-15T11:45:00.885Z,40.85
2023-03-15T11:47:44.917Z,39.90
2023-03-15T11:50:17.049Z,40.08
2023-03-15T11:52:51.838Z,39.81
2023-03-15T11:55:25.462Z,39.34
2023-03-15T11:57:55.046Z,39.84
2023-03-15T12:00:54.952Z,40.88
2023-03-15T12:03:38.734Z,41.26
2023-03-15T12:06:28.632Z,39.78
2023-03-15T12:08:57.668Z,38.80
2023-03-15T12:11:43.394Z,39.17
2023-03-15T12:14:33.302Z,39.08
2023-03-15T12:17:44.275Z,37.76
2023-03-15T12:20:22.776Z,39.34
2023-03-15T12:22:58.251Z,37.96
2023-03-15T12:25:39.511Z,37.00
2023-03-15T12:28:23.139Z,38.30
2023-03-15T12:30:59.281Z,35.24
2023-03-15T12:33:30.261Z,35.63
2023-03-15T12:36:09.108Z,33.14
2023-03-15T12:38:41.913Z,35.64
2023-03-15T12:41:35.816Z,33.84
2023-03-15T12:44:27.120Z,32.60
2023-03-15T12:46:59.278Z,32.15
2023-03-15T12:49:49.204Z,34.58
2023-03-15T12:52:40.694Z,33.25
2023-03-15T12:55:17.304Z,31.69
2023-03-15T12:57:51.045Z,33.03
2023-03-15T13:00:23.679Z,32.55
2023-03-15T13:03:08.980Z,32.31
2023-03-15T13:06:03.250Z,31.35
2023-03-15T13:08:41.636Z,31.30
2023-03-15T13:11:21.460Z,30.15
2023-03-15T13:14:05.921Z,30.39
2023-03-15T13:16:44.593Z,29.50
2023-03-15T13:19:22.930Z,28.34
2023-03-15T13:22:10.992Z,29.17
2023-03-15T13:24:45.970Z,30.38
2023-03-15T13:27:36.474Z,31.82
2023-03-15T13:30:29.057Z,33.37
2023-03-15T13:33:19.140Z,32.80
2023-03-15T13:35:54.640Z,33.36
2023-03-15T13:38:32.170Z,32.78
2023-03-15T13:41:03.764Z,33.08
2023-03-15T13:43:37.752Z,32.40
2023-03-15T13:46:07.544Z,32.89
2023-03-15T13:48:38.914Z,33.39
2023-03-15T13:51:14.522Z,33.62
2023-03-15T13:53:50.026Z,33.36
2023-03-15T13:56:22.865Z,33.11
2023-03-15T13:58:53.532Z,33.77
2023-03-15T14:01:24.339Z,33.38
2023-03-15T14:03:59.439Z,34.07
2023-03-15T14:06:30.321Z,32.42
2023-03-15T14:09:09.148Z,32.90
2023-03-15T14:11:40.666Z,33.16
2023-03-15T14:14:24.793Z,33.01
2023-03-15T14:17:04.926Z,32.50
2023-03-15T14:19:36.997Z,30.92
2023-03-15T14:22:16.658Z,28.56
2023-03-15T14:24:49.755Z,28.49
2023-03-15T14:27:22.187Z,29.56
2023-03-15T14:29:55.801Z,28.49
2023-03-15T14:32:29.834Z,29.22
2023-03-15T14:35:03.775Z,28.09
2023-03-15T14:37:39.384Z,28.59
2023-03-15T14:40:22.686Z,28.32
2023-03-15T14:42:52.624Z,28.45
2023-03-15T14:45:23.625Z,27.67
2023-03-15T14:47:57.432Z,28.00
2023-03-15T14:50:32.129Z,30.69
2023-03-15T14:53:01.643Z,30.62
2023-03-15T14:55:38.597Z,30.32
2023-03-15T14:58:13.931Z,30.05
2023-03-15T15:00:47.236Z,28.13
2023-03-15T15:03:22.253Z,26.97
2023-03-15T15:05:51.512Z,28.02
2023-03-15T15:08:23.290Z,26.86
2023-03-15T15:10:57.030Z,29.35
2023-03-15T15:13:28.642Z,31.35
2023-03-15T15:15:59.586Z,32.97
2023-03-15T15:18:31.126Z,33.45
2023-03-15T15:21:03.101Z,33.93
2023-03-15T15:23:47.443Z,33.95
2023-03-15T15:26:27.889Z,33.68
2023-03-15T15:28:57.508Z,33.97
2023-03-15T15:31:33.676Z,30.52
2023-03-15T15:34:02.998Z,27.69
2023-03-15T15:36:35.737Z,28.25
2023-03-15T15:39:22.403Z,25.89
2023-03-15T15:41:51.887Z,27.92
2023-03-15T15:44:23.915Z,28.97
2023-03-15T15:46:54.772Z,31.34
2023-03-15T15:49:23.794Z,32.46
2023-03-15T15:51:52.989Z,29.96
2023-03-15T15:54:27.413Z,29.06
2023-03-15T15:56:58.800Z,30.89
2023-03-15T15:59:28.506Z,31.44
2023-03-15T16:02:01.939Z,33.55
2023-03-15T16:04:32.939Z,34.96
2023-03-15T16:07:04.432Z,34.83
2023-03-15T16:09:36.323Z,35.60
2023-03-15T16:12:14.062Z,36.29
2023-03-15T16:14:43.941Z,36.23
2023-03-15T16:17:18.472Z,36.42
2023-03-15T16:19:47.616Z,36.88
2023-03-15T16:22:17.451Z,36.82
2023-03-15T16:24:48.303Z,37.10
2023-03-15T16:27:19.104Z,37.75
2023-03-15T16:29:51.503Z,37.32
2023-03-15T16:32:36.795Z,37.67
2023-03-15T16:35:15.609Z,37.85
2023-03-15T16:37:45.801Z,38.19
2023-03-15T16:40:21.570Z,38.85
2023-03-15T16:42:51.189Z,39.07
2023-03-15T16:45:21.122Z,39.53
2023-03-15T16:47:52.050Z,39.19
2023-03-15T16:50:21.788Z,40.45
2023-03-15T16:52:55.991Z,39.90
2023-03-15T16:55:27.875Z,39.86
2023-03-15T16:57:57.671Z,41.40
2023-03-15T17:00:27.166Z,41.31
2023-03-15T17:03:00.007Z,41.13
2023-03-15T17:05:29.481Z,41.50
2023-03-15T17:08:00.780Z,41.40
2023-03-15T17:10:32.999Z,42.28
2023-03-15T17:13:03.459Z,42.79
2023-03-15T17:15:32.822Z,43.20
2023-03-15T17:18:03.285Z,43.66
2023-03-15T17:20:32.714Z,44.88
2023-03-15T17:23:05.832Z,43.97
2023-03-15T17:25:35.562Z,43.66
2023-03-15T17:28:05.900Z,42.89
2023-03-15T17:30:38.167Z,42.78
2023-03-15T17:33:08.897Z,43.13
2023-03-15T17:35:42.660Z,42.02
2023-03-15T17:38:19.258Z,41.74
2023-03-15T17:40:49.356Z,42.28
2023-03-15T17:43:19.840Z,41.37
2023-03-15T17:45:49.064Z,41.87
2023-03-15T17:48:19.566Z,42.58
2023-03-15T17:50:48.583Z,43.05
2023-03-15T17:53:21.398Z,43.30
2023-03-15T17:55:53.589Z,43.61
2023-03-15T17:58:26.510Z,43.23
2023-03-15T18:00:56.207Z,43.33
2023-03-15T18:03:26.987Z,42.62
2023-03-15T18:05:56.058Z,43.35
2023-03-15T18:08:25.203Z,42.09
2023-03-15T18:10:54.550Z,41.30
2023-03-15T18:13:26.381Z,41.86
2023-03-15T18:15:55.559Z,42.38
2023-03-15T18:18:26.800Z,43.25
2023-03-15T18:20:55.846Z,43.51
2023-03-15T18:23:24.932Z,44.59
2023-03-15T18:25:54.052Z,43.91
2023-03-15T18:28:23.234Z,43.58
2023-03-15T18:30:52.268Z,43.51
2023-03-15T18:33:21.592Z,44.23
2023-03-15T18:35:53.643Z,45.15
2023-03-15T18:38:22.929Z,45.82
2023-03-15T18:40:52.293Z,45.91
2023-03-15T18:43:21.268Z,45.86
2023-03-15T18:45:51.214Z,44.96
2023-03-15T18:48:27.887Z,45.70
2023-03-15T18:51:12.258Z,45.06
2023-03-15T18:53:43.881Z,44.93
2023-03-15T18:56:20.411Z,46.25
2023-03-15T18:58:50.239Z,46.58
2023-03-15T19:01:22.423Z,47.36
2023-03-15T19:03:52.667Z,48.14
2023-03-15T19:06:23.852Z,49.00
2023-03-15T19:08:54.477Z,48.78
2023-03-15T19:11:24.502Z,49.11
2023-03-15T19:13:54.167Z,49.16
2023-03-15T19:16:23.587Z,49.11
2023-03-15T19:18:53.723Z,50.65
2023-03-15T19:21:26.469Z,50.35
2023-03-15T19:23:58.363Z,51.02
2023-03-15T19:26:27.926Z,50.69
2023-03-15T19:28:57.544Z,50.92
2023-03-15T19:31:27.012Z,50.57
2023-03-15T19:34:00.483Z,50.37
2023-03-15T19:36:31.544Z,51.02
2023-03-15T19:39:00.674Z,51.95
2023-03-15T19:41:30.349Z,51.59
2023-03-15T19:43:59.674Z,51.54
2023-03-15T19:46:28.962Z,51.47
2023-03-15T19:48:58.836Z,52.15
2023-03-15T19:51:28.933Z,54.12
2023-03-15T19:53:59.996Z,54.71
2023-03-15T19:56:29.950Z,55.96
2023-03-15T19:58:59.082Z,57.30
2023-03-15T20:01:28.678Z,57.23
2023-03-15T20:04:00.548Z,58.11
2023-03-15T20:06:29.772Z,58.36
2023-03-15T20:09:00.192Z,57.98
2023-03-15T20:11:29.493Z,58.76
2023-03-15T20:13:58.573Z,59.96
2023-03-15T20:16:27.687Z,60.44
2023-03-15T20:18:57.135Z,60.79
2023-03-15T20:21:26.754Z,62.71
2023-03-15T20:23:55.937Z,62.62
2023-03-15T20:26:31.226Z,65.39
2023-03-15T20:29:01.255Z,63.86
2023-03-15T20:31:30.701Z,64.82
2023-03-15T20:34:00.145Z,65.78
2023-03-15T20:36:29.329Z,67.04
2023-03-15T20:39:07.578Z,65.93
2023-03-15T20:41:42.363Z,66.99
2023-03-15T20:44:11.868Z,67.25
2023-03-15T20:46:42.244Z,69.22
2023-03-15T20:49:13.482Z,70.16
2023-03-15T20:51:43.477Z,69.21
2023-03-15T20:54:13.198Z,71.23
2023-03-15T20:56:43.938Z,71.89
2023-03-15T20:59:13.426Z,69.13
2023-03-15T21:01:42.848Z,68.17
2023-03-15T21:04:13.612Z,69.42
2023-03-15T21:06:43.117Z,70.18
2023-03-15T21:09:12.202Z,70.39
2023-03-15T21:11:41.333Z,71.72
2023-03-15T21:14:12.774Z,72.63
2023-03-15T21:16:41.886Z,73.61
2023-03-15T21:19:11.071Z,74.15
2023-03-15T21:21:43.215Z,75.93
2023-03-15T21:24:13.471Z,76.64
2023-03-15T21:26:44.111Z,76.13
2023-03-15T21:29:14.602Z,77.45
2023-03-15T21:31:43.844Z,77.50
2023-03-15T21:34:12.866Z,77.03
2023-03-15T21:36:43.909Z,77.77
2023-03-15T21:39:12.973Z,78.51
2023-03-15T21:41:42.024Z,77.00
2023-03-15T21:44:11.545Z,76.12
2023-03-15T21:46:43.358Z,75.59
2023-03-15T21:49:12.415Z,77.47
2023-03-15T21:51:46.061Z,77.19
2023-03-15T21:54:17.345Z,77.60
2023-03-15T21:56:46.537Z,76.94
2023-03-15T21:59:18.769Z,76.82
2023-03-15T22:01:49.512Z,77.03
2023-03-15T22:04:19.843Z,77.30
2023-03-15T22:06:49.126Z,79.04
2023-03-15T22:09:18.210Z,77.84
2023-03-15T22:11:47.250Z,77.50
2023-03-15T22:14:16.510Z,77.07
2023-03-15T22:16:45.713Z,77.40
2023-03-15T22:19:16.318Z,78.85
2023-03-15T22:21:45.465Z,79.79
2023-03-15T22:24:14.498Z,80.66
2023-03-15T22:26:44.081Z,80.64
2023-03-15T22:29:13.169Z,79.64
2023-03-15T22:31:42.202Z,80.30
2023-03-15T22:34:11.274Z,80.03
2023-03-15T22:36:42.743Z,81.20
2023-03-15T22:39:12.226Z,80.91
2023-03-15T22:41:41.498Z,80.58
2023-03-15T22:44:10.486Z,81.06
2023-03-15T22:46:40.164Z,81.38
2023-03-15T22:49:09.172Z,82.00
2023-03-15T22:51:40.385Z,80.93
2023-03-15T22:54:11.418Z,81.20
2023-03-15T22:56:41.095Z,80.98
2023-03-15T22:59:10.273Z,81.13
2023-03-15T23:01:39.832Z,83.29
2023-03-15T23:04:09.470Z,83.48
2023-03-15T23:06:38.578Z,83.42
2023-03-15T23:09:07.588Z,84.51
2023-03-15T23:11:37.993Z,83.64
2023-03-15T23:14:07.011Z,82.30
2023-03-15T23:16:36.071Z,81.33
2023-03-15T23:19:05.128Z,81.00
2023-03-15T23:21:34.197Z,81.77
2023-03-15T23:24:03.353Z,83.03
2023-03-15T23:26:37.184Z,82.40
2023-03-15T23:29:10.924Z,81.86
2023-03-15T23:31:40.882Z,80.46
2023-03-15T23:34:10.411Z,80.28
2023-03-15T23:36:39.486Z,80.96
2023-03-15T23:39:08.514Z,82.19
2023-03-15T23:41:37.508Z,80.58
2023-03-15T23:44:07.927Z,81.40
2023-03-15T23:46:37.004Z,80.10
2023-03-15T23:49:06.145Z,80.21
2023-03-15T23:51:35.925Z,80.61
2023-03-15T23:54:05.257Z,81.45
2023-03-15T23:56:34.342Z,82.41
2023-03-15T23:59:03.314Z,82.45
